Time;durP1;ratioP1;P1;durP2;ratioP2;P2;SDS_P1;SDS_P2;PMS_P1;PMS_P2;Temp;Humidity;BMP_temperature;BMP_pressure;BME280_temperature;BME280_humidity;BME280_pressure;Samples;Min_cycle;Max_cycle;Signal;HPM_P1;HPM_P2
2022/04/14 03:00:45;;;;;;;0.70;0.70;;;16.50;64.50;;;;;;5904506;23;20387;-73
2022/04/14 03:03:12;;;;;;;0.80;0.70;;;16.40;64.50;;;;;;4936458;29;20428;-73
2022/04/14 03:05:39;;;;;;;0.70;0.70;;;16.40;64.60;;;;;;4936830;29;20443;-73
2022/04/14 03:08:06;;;;;;;0.97;0.83;;;16.40;64.60;;;;;;4939049;29;20502;-74
2022/04/14 03:10:33;;;;;;;0.97;0.87;;;16.30;64.70;;;;;;4938888;29;20503;-73
2022/04/14 03:12:59;;;;;;;0.70;0.70;;;16.30;65.00;;;;;;4938807;29;20479;-73
2022/04/14 03:15:26;;;;;;;0.70;0.70;;;16.20;65.10;;;;;;4939968;29;20527;-73
2022/04/14 03:17:54;;;;;;;0.83;0.80;;;16.10;65.80;;;;;;4938819;29;20444;-73
2022/04/14 03:20:21;;;;;;;0.90;0.90;;;16.10;66.10;;;;;;4938991;29;20460;-74
2022/04/14 03:22:48;;;;;;;1.10;1.10;;;16.00;66.30;;;;;;4939192;29;20499;-74
2022/04/14 03:25:15;;;;;;;0.87;0.87;;;16.00;66.60;;;;;;4939421;29;20451;-73
2022/04/14 03:27:42;;;;;;;0.80;0.80;;;16.00;67.00;;;;;;4939507;29;20455;-74
2022/04/14 03:30:10;;;;;;;0.80;0.80;;;16.00;67.50;;;;;;4939221;29;20460;-74
2022/04/14 03:32:40;;;;;;;0.90;0.90;;;16.00;68.30;;;;;;4938738;29;21041;-74
2022/04/14 03:35:09;;;;;;;0.90;0.90;;;16.00;68.70;;;;;;4939265;29;20523;-74
2022/04/14 03:37:36;;;;;;;1.20;1.10;;;16.00;69.90;;;;;;4939344;29;20452;-74
2022/04/14 03:40:03;;;;;;;1.30;1.20;;;16.00;69.90;;;;;;4938902;29;20451;-73
2022/04/14 03:42:30;;;;;;;1.20;1.10;;;16.10;69.80;;;;;;4939166;29;20503;-74
2022/04/14 03:44:57;;;;;;;1.30;1.30;;;16.20;70.20;;;;;;4939612;29;20459;-74
2022/04/14 03:47:24;;;;;;;0.90;0.90;;;16.20;70.20;;;;;;4939084;29;20555;-74
2022/04/14 03:49:51;;;;;;;1.43;1.33;;;16.30;70.20;;;;;;4939034;29;20507;-74
2022/04/14 03:52:19;;;;;;;1.10;1.00;;;16.30;70.30;;;;;;4938593;29;21039;-73
2022/04/14 03:54:46;;;;;;;1.10;1.10;;;16.40;70.20;;;;;;4938906;29;20467;-74
2022/04/14 03:57:12;;;;;;;1.20;1.20;;;16.40;70.90;;;;;;4938681;29;20448;-74
2022/04/14 03:59:39;;;;;;;1.20;1.10;;;16.40;70.90;;;;;;4938537;29;20459;-74
2022/04/14 04:02:06;;;;;;;1.40;1.30;;;16.40;70.80;;;;;;4938415;29;20488;-74
2022/04/14 04:04:33;;;;;;;1.67;1.20;;;16.40;70.90;;;;;;4938333;29;20456;-74
2022/04/14 04:06:59;;;;;;;1.47;1.37;;;16.50;70.90;;;;;;4938583;29;20463;-74
2022/04/14 04:09:28;;;;;;;1.10;1.10;;;16.50;71.10;;;;;;4938996;29;20448;-74
2022/04/14 04:11:54;;;;;;;1.43;1.40;;;16.50;71.30;;;;;;4938054;29;21010;-73
2022/04/14 04:14:21;;;;;;;1.53;1.43;;;16.50;71.40;;;;;;4938411;29;20444;-73
2022/04/14 04:16:48;;;;;;;1.40;1.30;;;16.40;71.70;;;;;;4937924;29;20874;-74
2022/04/14 04:19:15;;;;;;;1.63;1.53;;;16.40;71.70;;;;;;4937721;29;20456;-74
2022/04/14 04:21:41;;;;;;;1.10;1.10;;;16.40;71.40;;;;;;4937637;29;20503;-73
2022/04/14 04:24:08;;;;;;;1.93;1.83;;;16.50;71.30;;;;;;4937659;29;20451;-73
2022/04/14 04:26:36;;;;;;;1.47;1.37;;;16.50;71.30;;;;;;4937664;29;20523;-73
2022/04/14 04:29:03;;;;;;;1.37;1.27;;;16.50;71.30;;;;;;4937621;29;20448;-73
2022/04/14 04:31:29;;;;;;;1.50;1.40;;;16.40;70.80;;;;;;4937395;29;20468;-73
2022/04/14 04:33:56;;;;;;;1.30;1.30;;;16.40;70.60;;;;;;4937573;29;20594;-73
2022/04/14 04:36:23;;;;;;;1.27;1.20;;;16.30;70.20;;;;;;4937179;29;20963;-73
2022/04/14 04:38:49;;;;;;;1.30;1.20;;;16.30;70.10;;;;;;4937362;29;20451;-72
2022/04/14 04:41:16;;;;;;;1.27;1.17;;;16.20;70.20;;;;;;4937501;29;20471;-73
2022/04/14 04:43:44;;;;;;;3.10;1.30;;;16.20;70.30;;;;;;4937311;29;20456;-73
2022/04/14 04:46:10;;;;;;;1.17;1.13;;;16.10;70.00;;;;;;4936882;29;20945;-73
2022/04/14 04:48:37;;;;;;;1.40;1.30;;;16.00;70.10;;;;;;4937167;29;20483;-73
2022/04/14 04:51:04;;;;;;;1.33;1.23;;;16.00;70.30;;;;;;4936761;29;20527;-73
2022/04/14 04:53:30;;;;;;;1.53;1.43;;;16.00;70.40;;;;;;4936920;29;20582;-73
2022/04/14 04:55:57;;;;;;;1.40;1.30;;;16.00;70.50;;;;;;4937018;29;20448;-73
2022/04/14 04:58:24;;;;;;;1.37;1.27;;;16.00;70.50;;;;;;4937058;29;20499;-73
2022/04/14 05:00:53;;;;;;;1.40;1.30;;;16.00;70.70;;;;;;4936869;29;20531;-73
2022/04/14 05:03:21;;;;;;;1.60;1.50;;;16.10;70.60;;;;;;4937002;29;20444;-73
2022/04/14 05:05:48;;;;;;;1.40;1.30;;;16.10;70.40;;;;;;4936842;29;20456;-73
2022/04/14 05:08:14;;;;;;;1.50;1.40;;;16.10;70.30;;;;;;4936815;29;20523;-73
2022/04/14 05:10:41;;;;;;;1.30;1.30;;;16.10;70.50;;;;;;4936435;29;21006;-73
2022/04/14 05:13:08;;;;;;;1.50;1.43;;;16.20;70.70;;;;;;4936753;29;20586;-73
2022/04/14 05:15:35;;;;;;;1.30;1.20;;;16.20;70.90;;;;;;4936838;29;20459;-73
2022/04/14 05:18:03;;;;;;;1.30;1.30;;;16.20;70.80;;;;;;4936917;29;20447;-73
2022/04/14 05:20:31;;;;;;;1.60;1.50;;;16.30;70.50;;;;;;4936555;29;20444;-73
2022/04/14 05:22:58;;;;;;;1.40;1.30;;;16.40;70.20;;;;;;4936869;29;20455;-73
2022/04/14 05:25:24;;;;;;;1.80;1.70;;;16.50;70.00;;;;;;4936575;29;20448;-73
2022/04/14 05:27:51;;;;;;;1.60;1.50;;;16.60;70.00;;;;;;4935670;29;20451;-73
2022/04/14 05:30:18;;;;;;;1.70;1.60;;;16.70;70.30;;;;;;4936173;29;20452;-73
2022/04/14 05:32:44;;;;;;;1.60;1.50;;;16.80;70.30;;;;;;4936158;29;20483;-73
2022/04/14 05:35:12;;;;;;;1.40;1.30;;;16.90;70.20;;;;;;4936302;29;20451;-74
2022/04/14 05:37:39;;;;;;;1.80;1.30;;;17.00;69.80;;;;;;4936167;29;20524;-73
2022/04/14 05:40:08;;;;;;;1.73;1.63;;;17.20;69.80;;;;;;4936265;29;20456;-73
2022/04/14 05:42:35;;;;;;;1.90;1.80;;;17.30;69.70;;;;;;4936091;29;20472;-73
2022/04/14 05:45:02;;;;;;;1.80;1.70;;;17.50;69.40;;;;;;4935900;29;21011;-73
2022/04/14 05:47:28;;;;;;;1.60;1.50;;;17.70;69.10;;;;;;4935851;29;20945;-73
2022/04/14 05:49:55;;;;;;;1.37;1.30;;;17.80;69.00;;;;;;4935787;29;20984;-73
2022/04/14 05:52:24;;;;;;;1.40;1.30;;;18.00;68.60;;;;;;4936058;29;20480;-72
2022/04/14 05:54:50;;;;;;;2.13;1.60;;;18.20;68.60;;;;;;4935966;29;20511;-73
2022/04/14 05:57:17;;;;;;;2.00;1.90;;;18.40;68.20;;;;;;4936052;29;20503;-73
2022/04/14 05:59:44;;;;;;;1.80;1.70;;;18.60;68.00;;;;;;4935944;29;20455;-73
2022/04/14 06:02:11;;;;;;;2.00;1.90;;;18.80;67.70;;;;;;4935337;29;20538;-73
2022/04/14 06:04:37;;;;;;;2.00;1.90;;;18.80;67.50;;;;;;4935856;29;20499;-73
2022/04/14 06:07:05;;;;;;;2.07;1.97;;;18.80;67.50;;;;;;4935882;29;20455;-73
2022/04/14 06:09:33;;;;;;;2.10;2.00;;;18.90;67.50;;;;;;4935894;29;20456;-73
2022/04/14 06:11:59;;;;;;;2.10;2.00;;;19.20;67.10;;;;;;4935734;29;20463;-73
2022/04/14 06:14:26;;;;;;;1.93;1.83;;;19.60;66.00;;;;;;4935728;29;20554;-73
2022/04/14 06:16:53;;;;;;;2.20;2.10;;;19.90;65.20;;;;;;4935837;29;20467;-73
2022/04/14 06:19:20;;;;;;;2.10;2.00;;;20.30;64.00;;;;;;4935807;29;20515;-73
2022/04/14 06:21:46;;;;;;;2.27;2.10;;;20.60;63.20;;;;;;4935708;29;20476;-73
2022/04/14 06:24:13;;;;;;;1.80;1.70;;;21.00;62.40;;;;;;4935642;29;20448;-73
2022/04/14 06:26:41;;;;;;;2.10;2.00;;;21.30;61.10;;;;;;4935761;29;20456;-73
2022/04/14 06:29:08;;;;;;;1.93;1.83;;;21.60;60.70;;;;;;4937091;29;20459;-73
2022/04/14 06:31:35;;;;;;;1.70;1.60;;;22.00;60.20;;;;;;4935554;29;20531;-74
2022/04/14 06:34:02;;;;;;;2.00;1.90;;;22.30;59.30;;;;;;4935809;29;20484;-73
2022/04/14 06:36:28;;;;;;;1.80;1.70;;;22.80;57.90;;;;;;4935600;29;20483;-73
2022/04/14 06:38:55;;;;;;;1.60;1.50;;;23.40;57.10;;;;;;4935863;29;20455;-73
2022/04/14 06:41:21;;;;;;;1.80;1.70;;;23.80;55.40;;;;;;4939505;29;20542;-73
2022/04/14 06:43:50;;;;;;;1.60;1.50;;;24.30;55.10;;;;;;4939500;29;20440;-73
2022/04/14 06:46:16;;;;;;;1.53;1.43;;;24.70;54.30;;;;;;4939610;29;20463;-74
2022/04/14 06:48:43;;;;;;;1.70;1.60;;;24.90;53.00;;;;;;4939425;29;20451;-73
2022/04/14 06:51:10;;;;;;;1.50;1.50;;;24.80;53.20;;;;;;4939352;29;20554;-73
2022/04/14 06:53:37;;;;;;;1.50;1.40;;;25.00;52.60;;;;;;4939411;29;20482;-73
2022/04/14 06:56:04;;;;;;;1.67;1.47;;;25.20;52.40;;;;;;4939599;29;20534;-74
2022/04/14 06:58:31;;;;;;;1.57;1.47;;;25.20;52.30;;;;;;4939144;29;20448;-73
2022/04/14 07:00:59;;;;;;;1.83;1.73;;;25.00;52.30;;;;;;4938992;29;20483;-73
2022/04/14 07:03:27;;;;;;;1.40;1.30;;;24.80;52.90;;;;;;4939198;29;20432;-73
2022/04/14 07:05:54;;;;;;;1.70;1.60;;;24.60;53.30;;;;;;4939138;29;20543;-73
2022/04/14 07:08:21;;;;;;;1.47;1.37;;;24.50;53.30;;;;;;4939095;29;20464;-73
2022/04/14 07:10:48;;;;;;;1.33;1.27;;;24.40;54.40;;;;;;4938934;29;20463;-73
2022/04/14 07:13:15;;;;;;;1.80;1.70;;;24.40;54.20;;;;;;4938884;29;20479;-73
2022/04/14 07:15:41;;;;;;;1.67;1.57;;;24.40;54.60;;;;;;4938912;29;20866;-73
2022/04/14 07:18:09;;;;;;;1.47;1.37;;;24.40;53.80;;;;;;4938654;29;20971;-73
2022/04/14 07:20:36;;;;;;;1.60;1.50;;;24.20;54.10;;;;;;4938805;29;20515;-73
2022/04/14 07:23:03;;;;;;;1.53;1.43;;;24.20;54.20;;;;;;4938509;29;20947;-73
2022/04/14 07:25:32;;;;;;;1.13;1.13;;;24.00;54.40;;;;;;4938683;29;20483;-73
2022/04/14 07:28:00;;;;;;;1.70;1.60;;;23.80;54.70;;;;;;4938714;29;20511;-73
2022/04/14 07:30:27;;;;;;;1.50;1.40;;;23.60;55.20;;;;;;4938777;29;20539;-73
2022/04/14 07:32:55;;;;;;;1.57;1.47;;;23.50;55.30;;;;;;4938562;29;20518;-73
2022/04/14 07:35:25;;;;;;;1.77;1.67;;;23.40;56.00;;;;;;4938559;29;20452;-73
2022/04/14 07:37:52;;;;;;;1.60;1.50;;;23.50;56.30;;;;;;4938565;29;20440;-73
2022/04/14 07:40:19;;;;;;;1.40;1.30;;;23.50;56.50;;;;;;4938442;29;20451;-73
2022/04/14 07:42:49;;;;;;;1.43;1.43;;;23.60;56.60;;;;;;4938376;29;20477;-73
2022/04/14 07:45:16;;;;;;;1.50;1.40;;;23.60;56.20;;;;;;4938440;29;20499;-73
2022/04/14 07:47:44;;;;;;;1.63;1.53;;;23.60;56.70;;;;;;4938259;29;20451;-73
2022/04/14 07:50:12;;;;;;;1.50;1.40;;;23.30;57.40;;;;;;4938307;29;20577;-73
2022/04/14 07:52:48;;;;;;;1.50;1.40;;;23.20;57.40;;;;;;4937278;29;21017;-73
2022/04/14 07:55:19;;;;;;;1.50;1.40;;;22.40;59.30;;;;;;4938320;29;20534;-73
2022/04/14 07:57:46;;;;;;;1.50;1.40;;;22.20;60.00;;;;;;4938653;29;20534;-73
2022/04/14 08:00:13;;;;;;;1.30;1.30;;;22.40;60.40;;;;;;4938525;29;20478;-74
2022/04/14 08:02:53;;;;;;;1.43;1.33;;;22.50;60.90;;;;;;4937673;29;21050;-73
2022/04/14 08:05:20;;;;;;;1.57;1.50;;;22.80;59.40;;;;;;4938072;29;20440;-73
2022/04/14 08:07:48;;;;;;;1.73;1.50;;;22.90;59.90;;;;;;4938135;29;20454;-73
2022/04/14 08:10:15;;;;;;;1.83;1.73;;;23.00;59.50;;;;;;4937908;29;20448;-73
2022/04/14 08:12:41;;;;;;;1.30;1.20;;;22.90;58.70;;;;;;4937782;29;20475;-73
2022/04/14 08:15:10;;;;;;;1.20;1.20;;;22.90;58.90;;;;;;4937348;29;21007;-73
2022/04/14 08:17:38;;;;;;;1.40;1.30;;;22.80;60.10;;;;;;4937704;29;20536;-73
2022/04/14 08:20:06;;;;;;;1.80;1.70;;;22.90;58.50;;;;;;4937771;29;20459;-73
2022/04/14 08:22:49;;;;;;;1.43;1.33;;;23.10;59.20;;;;;;4937574;29;20471;-73
2022/04/14 08:25:18;;;;;;;1.47;1.37;;;23.10;58.00;;;;;;4937678;29;20442;-73
2022/04/14 08:27:44;;;;;;;1.60;1.50;;;23.20;58.20;;;;;;4937735;29;20444;-74
2022/04/14 08:30:12;;;;;;;1.50;1.40;;;23.40;57.20;;;;;;4937810;29;20463;-73
2022/04/14 08:32:39;;;;;;;1.47;1.37;;;23.50;57.00;;;;;;4937398;29;20563;-73
2022/04/14 08:35:07;;;;;;;1.43;1.33;;;23.70;56.60;;;;;;4937623;29;20509;-73
2022/04/14 08:37:34;;;;;;;1.43;1.33;;;23.60;56.60;;;;;;4937484;29;20507;-73
2022/04/14 08:40:03;;;;;;;1.30;1.20;;;23.90;55.60;;;;;;4937406;29;20452;-73
2022/04/14 08:42:37;;;;;;;1.50;1.40;;;23.80;56.00;;;;;;4937247;29;20551;-73
2022/04/14 08:45:05;;;;;;;1.43;1.33;;;23.70;57.80;;;;;;4937386;29;20436;-73
2022/04/14 08:47:34;;;;;;;1.30;1.30;;;23.80;56.10;;;;;;4937220;29;20542;-73
2022/04/14 08:50:03;;;;;;;1.47;1.37;;;24.00;55.70;;;;;;4937262;29;20456;-73
2022/04/14 08:52:29;;;;;;;1.70;1.60;;;24.00;57.30;;;;;;4937302;29;20467;-74
2022/04/14 08:54:56;;;;;;;1.50;1.40;;;23.90;55.70;;;;;;4937883;29;20630;-73
2022/04/14 08:57:25;;;;;;;1.47;1.37;;;23.70;56.50;;;;;;4936794;29;20930;-73
2022/04/14 08:59:52;;;;;;;1.40;1.40;;;23.20;57.40;;;;;;4936971;29;20503;-74
2022/04/14 09:02:21;;;;;;;1.57;1.47;;;23.40;56.90;;;;;;4936706;29;20492;-73
2022/04/14 09:04:49;;;;;;;1.40;1.30;;;23.70;56.80;;;;;;4937225;29;20452;-73
2022/04/14 09:07:16;;;;;;;1.43;1.33;;;23.90;56.90;;;;;;4936859;29;20467;-73
2022/04/14 09:09:44;;;;;;;1.17;1.17;;;24.00;55.40;;;;;;4936474;29;20857;-73
2022/04/14 09:12:11;;;;;;;1.40;1.30;;;24.00;57.00;;;;;;4936709;29;20471;-73
2022/04/14 09:14:39;;;;;;;1.20;1.20;;;23.70;56.30;;;;;;5049603;23;20565;-78
2022/04/14 09:17:07;;;;;;;1.20;1.10;;;23.30;56.40;;;;;;4937568;29;20487;-77
2022/04/14 09:19:35;;;;;;;1.43;1.33;;;23.00;58.30;;;;;;4937595;29;20809;-78
2022/04/14 09:22:07;;;;;;;1.47;1.37;;;22.90;58.40;;;;;;4937089;29;20538;-78
2022/04/14 09:24:41;;;;;;;1.37;1.27;;;23.00;57.60;;;;;;4936986;29;20476;-78
2022/04/14 09:27:09;;;;;;;1.30;1.20;;;23.30;56.80;;;;;;4937155;29;20451;-78
2022/04/14 09:29:36;;;;;;;1.03;1.03;;;23.40;55.90;;;;;;4936800;29;20859;-78
2022/04/14 09:32:04;;;;;;;1.20;1.10;;;23.60;55.90;;;;;;4936848;29;20448;-78
2022/04/14 09:34:48;;;;;;;1.47;1.37;;;23.60;56.30;;;;;;4936843;29;20491;-78
2022/04/14 09:37:15;;;;;;;1.40;1.30;;;23.40;55.40;;;;;;4936808;29;20498;-78
2022/04/14 09:39:53;;;;;;;1.30;1.20;;;23.50;55.70;;;;;;4936499;29;21003;-77
2022/04/14 09:42:21;;;;;;;1.20;1.10;;;23.50;55.80;;;;;;4936750;29;20543;-79
2022/04/14 09:44:49;;;;;;;1.60;1.50;;;23.60;55.40;;;;;;4936596;29;20570;-78
2022/04/14 09:47:24;;;;;;;1.20;1.10;;;23.50;56.60;;;;;;4936324;29;20884;-78
2022/04/14 09:49:51;;;;;;;1.07;1.07;;;23.60;56.20;;;;;;4936380;29;20499;-78
2022/04/14 09:52:18;;;;;;;1.00;1.00;;;23.50;56.20;;;;;;4936324;29;21035;-78
2022/04/14 09:54:45;;;;;;;1.43;1.33;;;23.60;54.90;;;;;;4936298;29;20499;-78
2022/04/14 09:57:12;;;;;;;1.00;1.00;;;23.70;54.20;;;;;;4936509;29;20458;-78
2022/04/14 09:59:39;;;;;;;1.13;1.13;;;23.80;53.60;;;;;;4936394;29;20448;-78
2022/04/14 10:02:10;;;;;;;1.37;1.10;;;23.80;53.90;;;;;;4936066;29;21113;-78
2022/04/14 10:04:40;;;;;;;1.07;1.07;;;23.90;54.20;;;;;;4935956;29;20468;-78
2022/04/14 10:07:09;;;;;;;1.30;1.20;;;24.00;54.10;;;;;;4936507;29;20460;-78
2022/04/14 10:09:39;;;;;;;1.30;1.20;;;24.00;54.40;;;;;;4936840;29;20511;-79
2022/04/14 10:12:26;;;;;;;1.07;1.07;;;23.50;55.00;;;;;;4936485;29;20459;-78
2022/04/14 10:15:01;;;;;;;1.43;1.33;;;23.40;56.30;;;;;;4935383;29;20532;-79
2022/04/14 10:17:29;;;;;;;1.00;1.00;;;23.60;56.10;;;;;;4936271;29;20455;-78
2022/04/14 10:19:57;;;;;;;2.40;1.13;;;24.00;55.30;;;;;;4936174;29;20451;-78
2022/04/14 10:22:25;;;;;;;1.30;1.20;;;24.20;53.80;;;;;;4936152;29;20647;-78
2022/04/14 10:24:53;;;;;;;1.10;1.10;;;24.40;52.50;;;;;;4936101;29;20919;-78
2022/04/14 10:27:22;;;;;;;1.20;1.10;;;24.70;52.70;;;;;;4936130;29;20458;-78
2022/04/14 10:29:49;;;;;;;1.30;1.20;;;24.90;52.60;;;;;;4935880;29;20876;-78
2022/04/14 10:32:17;;;;;;;1.10;1.10;;;25.10;52.80;;;;;;4936191;29;20543;-79
2022/04/14 10:34:45;;;;;;;1.30;1.20;;;25.30;52.10;;;;;;4935667;29;21027;-78
2022/04/14 10:37:18;;;;;;;1.10;1.10;;;25.30;53.00;;;;;;4936048;29;20447;-78
2022/04/14 10:39:48;;;;;;;2.97;1.30;;;25.40;52.10;;;;;;4936085;29;20484;-78
2022/04/14 10:42:18;;;;;;;1.30;1.20;;;24.70;52.50;;;;;;4936055;29;20444;-78
2022/04/14 10:44:45;;;;;;;1.30;1.20;;;24.70;53.90;;;;;;4935841;29;20995;-78
2022/04/14 10:47:13;;;;;;;1.03;1.03;;;25.00;52.90;;;;;;4935993;29;20486;-78
2022/04/14 10:49:41;;;;;;;1.27;1.17;;;25.20;52.80;;;;;;4936182;29;20460;-78
2022/04/14 10:52:24;;;;;;;1.20;1.10;;;25.30;52.70;;;;;;4936013;29;20487;-79
2022/04/14 10:54:58;;;;;;;1.13;1.13;;;25.30;52.50;;;;;;4935759;29;20586;-78
2022/04/14 10:57:37;;;;;;;1.10;1.10;;;25.30;53.70;;;;;;4935859;29;20868;-78
2022/04/14 11:00:35;;;;;;;1.20;1.10;;;25.40;52.80;;;;;;4935839;29;20526;-78
2022/04/14 11:03:03;;;;;;;1.33;1.23;;;25.60;53.20;;;;;;4935721;29;20529;-78
2022/04/14 11:05:41;;;;;;;1.50;1.23;;;25.60;51.90;;;;;;4935816;29;20463;-78
2022/04/14 11:08:26;;;;;;;1.07;1.07;;;25.60;51.90;;;;;;4935883;29;20448;-78
2022/04/14 11:11:08;;;;;;;1.20;1.10;;;25.50;51.70;;;;;;4935965;29;20543;-78
2022/04/14 11:14:07;;;;;;;1.30;1.20;;;25.70;53.20;;;;;;4936189;29;20500;-78
2022/04/14 11:16:44;;;;;;;1.20;1.07;;;25.80;52.50;;;;;;4935825;29;20567;-78
2022/04/14 11:19:24;;;;;;;1.00;1.00;;;26.00;52.50;;;;;;4936010;29;20881;-77
2022/04/14 11:22:00;;;;;;;1.10;1.00;;;26.10;51.20;;;;;;4936012;29;20519;-77
2022/04/14 11:24:42;;;;;;;1.20;1.20;;;26.10;52.30;;;;;;4935862;29;20434;-77
2022/04/14 11:27:10;;;;;;;1.07;0.97;;;26.20;52.60;;;;;;4937804;29;20464;-78
2022/04/14 11:29:36;;;;;;;1.37;1.27;;;26.20;51.90;;;;;;4939991;29;20444;-78
2022/04/14 11:32:04;;;;;;;1.30;1.20;;;26.00;51.80;;;;;;4939935;29;20526;-78
2022/04/14 11:34:34;;;;;;;1.30;1.23;;;25.90;53.30;;;;;;4942061;29;20491;-78
2022/04/14 11:37:02;;;;;;;1.50;1.40;;;25.80;52.30;;;;;;4948280;29;20475;-77
2022/04/14 11:39:29;;;;;;;1.50;1.40;;;25.90;51.80;;;;;;4949389;29;20451;-78
2022/04/14 11:42:10;;;;;;;1.50;1.40;;;26.00;52.90;;;;;;4949738;29;20466;-78
2022/04/14 11:44:37;;;;;;;1.43;1.33;;;26.00;52.30;;;;;;4949406;29;20846;-78
2022/04/14 11:47:05;;;;;;;1.23;1.20;;;26.10;52.40;;;;;;4949775;29;20456;-78
2022/04/14 11:49:33;;;;;;;1.00;1.00;;;26.10;52.20;;;;;;4950348;29;20447;-79
2022/04/14 11:52:01;;;;;;;1.30;1.20;;;25.70;52.40;;;;;;4948517;29;20447;-78
2022/04/14 11:54:36;;;;;;;1.50;1.40;;;25.80;52.20;;;;;;4946027;29;20444;-79
2022/04/14 11:57:06;;;;;;;1.73;1.20;;;25.80;53.50;;;;;;4938764;29;20546;-78
2022/04/14 11:59:35;;;;;;;1.40;1.30;;;26.00;54.40;;;;;;4938921;29;20447;-79
2022/04/14 12:02:04;;;;;;;1.70;1.60;;;26.00;52.60;;;;;;4938861;29;20452;-78
2022/04/14 12:04:36;;;;;;;1.40;1.30;;;25.90;52.70;;;;;;4938719;29;20553;-78
2022/04/14 12:07:03;;;;;;;1.37;1.27;;;25.90;53.10;;;;;;4938679;29;20519;-79
2022/04/14 12:09:29;;;;;;;1.40;1.30;;;26.10;51.80;;;;;;4938531;29;20463;-79
2022/04/14 12:11:56;;;;;;;1.20;1.20;;;26.30;51.80;;;;;;4938873;29;20456;-79
2022/04/14 12:14:24;;;;;;;1.17;1.07;;;26.60;51.80;;;;;;4938346;29;20506;-79
2022/04/14 12:16:52;;;;;;;1.87;1.43;;;26.70;51.00;;;;;;4938685;29;20453;-79
2022/04/14 12:19:19;;;;;;;1.40;1.30;;;26.60;51.10;;;;;;4938861;29;20810;-79
2022/04/14 12:22:00;;;;;;;1.23;1.13;;;26.40;51.40;;;;;;4938240;29;20456;-78
2022/04/14 12:24:27;;;;;;;1.00;1.00;;;26.60;50.20;;;;;;4938172;29;20830;-79
2022/04/14 12:26:54;;;;;;;1.33;1.23;;;26.80;50.90;;;;;;4938565;29;20444;-79
2022/04/14 12:29:22;;;;;;;1.37;1.27;;;27.00;50.10;;;;;;4938403;29;20447;-79
2022/04/14 12:31:50;;;;;;;1.00;1.00;;;27.10;50.00;;;;;;4938314;29;20455;-78
2022/04/14 12:34:16;;;;;;;1.90;0.83;;;27.00;50.40;;;;;;4938248;29;20451;-79
2022/04/14 12:36:43;;;;;;;1.60;1.40;;;27.10;49.40;;;;;;4938812;29;20483;-79
2022/04/14 12:39:19;;;;;;;1.43;1.33;;;27.20;49.50;;;;;;4938873;29;20451;-79
2022/04/14 12:41:46;;;;;;;2.03;1.40;;;27.10;49.30;;;;;;4938571;29;20443;-79
2022/04/14 12:44:17;;;;;;;0.90;0.90;;;27.10;49.50;;;;;;4940348;29;20455;-79
2022/04/14 12:46:48;;;;;;;1.40;1.30;;;26.90;49.20;;;;;;4938762;29;20908;-79
2022/04/14 12:49:19;;;;;;;1.20;1.10;;;27.00;49.60;;;;;;4938286;29;20446;-79
2022/04/14 12:51:53;;;;;;;1.37;1.20;;;27.10;50.40;;;;;;4938471;29;20444;-79
2022/04/14 12:54:20;;;;;;;1.10;1.10;;;27.20;49.90;;;;;;4939254;29;20515;-78
2022/04/14 12:56:57;;;;;;;1.27;1.17;;;27.20;50.50;;;;;;4938519;29;20480;-79
2022/04/14 12:59:24;;;;;;;1.40;1.30;;;27.30;49.80;;;;;;4939119;29;20447;-79
2022/04/14 13:01:53;;;;;;;1.50;1.40;;;27.20;50.00;;;;;;4938076;29;20451;-78
2022/04/14 13:04:30;;;;;;;1.13;1.13;;;27.10;50.00;;;;;;4937891;29;20503;-79
2022/04/14 13:06:58;;;;;;;1.13;1.13;;;27.10;50.60;;;;;;4937825;29;20432;-79
2022/04/14 13:09:25;;;;;;;1.30;1.20;;;27.00;49.60;;;;;;4938574;29;20503;-79
2022/04/14 13:11:51;;;;;;;1.27;1.27;;;27.10;49.70;;;;;;4938962;29;20459;-79
2022/04/14 13:14:20;;;;;;;1.40;1.30;;;27.40;49.90;;;;;;4937761;29;20452;-79
2022/04/14 13:16:47;;;;;;;1.20;1.20;;;27.40;50.60;;;;;;4938593;29;20491;-79
2022/04/14 13:19:15;;;;;;;1.60;1.50;;;27.50;48.80;;;;;;4937581;29;20507;-79
2022/04/14 13:21:43;;;;;;;1.30;1.30;;;27.70;49.20;;;;;;4937484;29;20507;-79
2022/04/14 13:24:10;;;;;;;1.20;1.20;;;27.70;49.60;;;;;;4936855;29;20874;-79
2022/04/14 13:26:37;;;;;;;1.50;1.40;;;27.80;50.60;;;;;;4937165;29;20491;-79
2022/04/14 13:29:03;;;;;;;1.53;1.43;;;27.90;49.10;;;;;;4937295;29;20452;-79
2022/04/14 13:31:30;;;;;;;1.17;1.07;;;27.70;47.90;;;;;;4937623;29;20503;-79
2022/04/14 13:33:57;;;;;;;1.50;1.40;;;27.40;49.20;;;;;;4936909;29;21015;-79
2022/04/14 13:36:24;;;;;;;1.67;1.57;;;27.10;49.90;;;;;;4937032;29;20483;-79
2022/04/14 13:38:52;;;;;;;1.40;1.40;;;27.10;50.60;;;;;;4936902;29;20452;-79
2022/04/14 13:41:19;;;;;;;1.30;1.20;;;27.10;50.80;;;;;;4937571;29;20443;-79
2022/04/14 13:43:46;;;;;;;1.37;1.27;;;27.20;51.20;;;;;;4938158;29;20863;-79
2022/04/14 13:46:13;;;;;;;1.30;1.20;;;27.50;49.80;;;;;;4937596;29;20467;-79
2022/04/14 13:48:40;;;;;;;1.33;1.23;;;27.60;49.60;;;;;;4937499;29;20452;-78
2022/04/14 13:51:06;;;;;;;1.80;1.70;;;27.60;49.20;;;;;;4937260;29;20535;-79
2022/04/14 13:53:33;;;;;;;1.60;1.50;;;27.30;50.30;;;;;;4937325;29;20474;-78
2022/04/14 13:56:01;;;;;;;1.20;1.20;;;27.40;49.10;;;;;;4937050;29;20924;-79
2022/04/14 13:58:28;;;;;;;1.40;1.30;;;27.50;48.70;;;;;;4938821;29;20448;-79
2022/04/14 14:00:55;;;;;;;1.30;1.20;;;27.50;49.30;;;;;;4937793;29;20552;-79
2022/04/14 14:03:22;;;;;;;1.10;1.10;;;27.50;49.30;;;;;;4936959;29;20459;-79
2022/04/14 14:05:49;;;;;;;1.30;1.20;;;27.40;48.90;;;;;;4943485;29;20495;-79
2022/04/14 14:08:16;;;;;;;1.47;1.37;;;27.70;48.90;;;;;;4937413;29;20443;-79
2022/04/14 14:10:43;;;;;;;1.30;1.20;;;28.00;48.40;;;;;;4937836;29;20483;-79
2022/04/14 14:13:11;;;;;;;1.40;1.30;;;28.00;48.10;;;;;;4937060;29;20503;-79
2022/04/14 14:15:38;;;;;;;1.23;1.20;;;27.90;48.40;;;;;;4938015;29;20496;-79
2022/04/14 14:18:06;;;;;;;1.10;1.10;;;27.90;48.10;;;;;;4937164;29;20503;-79
2022/04/14 14:20:34;;;;;;;1.20;1.13;;;27.70;48.10;;;;;;4937127;29;20463;-79
2022/04/14 14:23:00;;;;;;;1.10;1.10;;;27.70;47.90;;;;;;4936805;29;20581;-79
2022/04/14 14:25:27;;;;;;;1.60;1.50;;;27.70;48.70;;;;;;4936792;29;20537;-79
2022/04/14 14:27:54;;;;;;;1.83;1.73;;;27.70;48.40;;;;;;4936484;29;20456;-79
2022/04/14 14:30:22;;;;;;;1.37;1.30;;;27.80;48.80;;;;;;4936686;29;20805;-79
2022/04/14 14:32:49;;;;;;;1.20;1.20;;;28.00;48.80;;;;;;4936887;29;20447;-79
2022/04/14 14:35:15;;;;;;;1.60;1.50;;;28.10;47.60;;;;;;4936068;29;20487;-79
2022/04/14 14:37:42;;;;;;;1.30;1.20;;;28.20;47.20;;;;;;4936427;29;21003;-79
2022/04/14 14:40:10;;;;;;;1.47;1.37;;;28.40;47.10;;;;;;4936590;29;20515;-79
2022/04/14 14:42:37;;;;;;;1.60;1.50;;;28.40;46.70;;;;;;4936563;29;20901;-78
2022/04/14 14:45:05;;;;;;;1.20;1.20;;;28.20;47.10;;;;;;4936955;29;20507;-79
2022/04/14 14:47:33;;;;;;;1.33;1.23;;;28.10;47.00;;;;;;4936853;29;20833;-79
2022/04/14 14:50:00;;;;;;;1.17;1.17;;;28.00;46.90;;;;;;4936052;29;20507;-79
2022/04/14 14:52:27;;;;;;;1.30;1.23;;;27.70;47.40;;;;;;4936203;29;21016;-79
2022/04/14 14:54:54;;;;;;;1.30;1.20;;;27.70;47.20;;;;;;4936504;29;20471;-79
2022/04/14 14:59:12;;;;;;;1.50;1.40;;;27.60;47.70;;;;;;4936252;29;20589;-79
2022/04/14 15:00:07;;;;;;;1.40;1.30;;;27.40;48.60;;;;;;4936236;29;20455;-79
2022/04/14 15:02:37;;;;;;;1.20;1.20;;;27.50;48.90;;;;;;4939862;29;20455;-79
2022/04/14 15:05:04;;;;;;;1.40;1.30;;;27.50;48.80;;;;;;4939647;29;20507;-79
2022/04/14 15:07:31;;;;;;;1.10;1.10;;;27.80;49.00;;;;;;4939601;29;20873;-79
2022/04/14 15:09:58;;;;;;;1.40;1.30;;;28.20;48.30;;;;;;4940338;29;20455;-79
2022/04/14 15:12:24;;;;;;;1.07;1.07;;;28.20;49.00;;;;;;4940061;29;20465;-79
2022/04/14 15:14:51;;;;;;;1.30;1.20;;;27.80;48.60;;;;;;5039756;23;20483;-71
2022/04/14 15:17:18;;;;;;;1.20;1.20;;;27.30;49.30;;;;;;4938876;29;20487;-74
2022/04/14 15:19:46;;;;;;;1.33;1.23;;;27.30;49.50;;;;;;4938713;29;20452;-74
2022/04/14 15:22:13;;;;;;;1.20;1.10;;;27.20;50.10;;;;;;4938859;29;20479;-74
2022/04/14 15:24:40;;;;;;;1.43;1.33;;;27.00;49.40;;;;;;4938867;29;20459;-73
2022/04/14 15:27:07;;;;;;;1.23;1.23;;;26.30;50.40;;;;;;4938633;29;20963;-74
2022/04/14 15:29:35;;;;;;;1.13;1.13;;;25.80;51.90;;;;;;4938341;29;20824;-74
2022/04/14 15:32:01;;;;;;;1.43;1.33;;;25.50;52.80;;;;;;4938634;29;20455;-73
2022/04/14 15:34:28;;;;;;;2.50;2.30;;;25.10;54.20;;;;;;4938475;29;20518;-74
2022/04/14 15:36:56;;;;;;;1.30;1.30;;;24.90;54.40;;;;;;4938442;29;20492;-73
2022/04/14 15:39:23;;;;;;;1.87;1.77;;;25.00;54.60;;;;;;4938489;29;20479;-73
2022/04/14 15:41:49;;;;;;;1.70;1.60;;;25.00;54.40;;;;;;4938432;29;20452;-73
2022/04/14 15:44:16;;;;;;;1.50;1.40;;;25.10;54.40;;;;;;4938352;29;20456;-73
2022/04/14 15:46:42;;;;;;;1.80;1.70;;;25.00;54.40;;;;;;4938396;29;20471;-73
2022/04/14 15:49:09;;;;;;;1.50;1.33;;;25.00;54.20;;;;;;4938216;29;20515;-73
2022/04/14 15:51:36;;;;;;;1.40;1.30;;;25.00;54.70;;;;;;4938222;29;20460;-73
2022/04/14 15:54:04;;;;;;;1.20;1.20;;;25.00;54.20;;;;;;4938320;29;20458;-73